sensor_id;sensor_type;location;lat;lon;timestamp;temperature;humidity
38684;DHT22;24910;53.248;-6.134;2022-08-16T00:01:55;19.00;85.80
38684;DHT22;24910;53.248;-6.134;2022-08-16T00:04:26;18.90;85.70
38684;DHT22;24910;53.248;-6.134;2022-08-16T00:06:56;18.90;85.60
38684;DHT22;24910;53.248;-6.134;2022-08-16T00:09:25;18.80;85.60
38684;DHT22;24910;53.248;-6.134;2022-08-16T00:11:54;18.80;85.50
38684;DHT22;24910;53.248;-6.134;2022-08-16T00:14:29;18.80;85.40
38684;DHT22;24910;53.248;-6.134;2022-08-16T00:16:59;18.90;85.40
38684;DHT22;24910;53.248;-6.134;2022-08-16T00:19:46;18.80;85.20
38684;DHT22;24910;53.248;-6.134;2022-08-16T00:22:20;18.90;85.10
38684;DHT22;24910;53.248;-6.134;2022-08-16T00:24:52;18.80;84.80
38684;DHT22;24910;53.248;-6.134;2022-08-16T00:27:22;18.80;84.80
38684;DHT22;24910;53.248;-6.134;2022-08-16T00:29:53;18.80;84.70
38684;DHT22;24910;53.248;-6.134;2022-08-16T00:32:43;18.80;84.50
38684;DHT22;24910;53.248;-6.134;2022-08-16T00:35:15;18.70;84.30
38684;DHT22;24910;53.248;-6.134;2022-08-16T00:37:45;18.70;84.20
38684;DHT22;24910;53.248;-6.134;2022-08-16T00:40:26;18.60;84.20
38684;DHT22;24910;53.248;-6.134;2022-08-16T00:43:04;18.60;84.20
38684;DHT22;24910;53.248;-6.134;2022-08-16T00:45:45;18.60;84.10
38684;DHT22;24910;53.248;-6.134;2022-08-16T00:48:25;18.60;84.00
38684;DHT22;24910;53.248;-6.134;2022-08-16T00:50:58;18.60;83.90
38684;DHT22;24910;53.248;-6.134;2022-08-16T00:53:29;18.60;84.00
38684;DHT22;24910;53.248;-6.134;2022-08-16T00:56:02;18.60;83.90
38684;DHT22;24910;53.248;-6.134;2022-08-16T00:58:35;18.70;83.90
38684;DHT22;24910;53.248;-6.134;2022-08-16T01:01:07;18.70;84.00
38684;DHT22;24910;53.248;-6.134;2022-08-16T01:03:38;18.70;84.00
38684;DHT22;24910;53.248;-6.134;2022-08-16T01:06:10;18.70;84.30
38684;DHT22;24910;53.248;-6.134;2022-08-16T01:09:00;18.70;84.30
38684;DHT22;24910;53.248;-6.134;2022-08-16T01:11:36;18.70;84.30
38684;DHT22;24910;53.248;-6.134;2022-08-16T01:14:25;18.60;84.30
38684;DHT22;24910;53.248;-6.134;2022-08-16T01:17:00;18.70;84.50
38684;DHT22;24910;53.248;-6.134;2022-08-16T01:19:37;18.60;84.50
38684;DHT22;24910;53.248;-6.134;2022-08-16T01:22:13;18.60;84.60
38684;DHT22;24910;53.248;-6.134;2022-08-16T01:25:09;18.50;84.60
38684;DHT22;24910;53.248;-6.134;2022-08-16T01:27:43;18.50;84.70
38684;DHT22;24910;53.248;-6.134;2022-08-16T01:30:16;18.50;84.50
38684;DHT22;24910;53.248;-6.134;2022-08-16T01:32:57;18.60;84.60
38684;DHT22;24910;53.248;-6.134;2022-08-16T01:35:45;18.50;84.50
38684;DHT22;24910;53.248;-6.134;2022-08-16T01:38:23;18.50;84.40
38684;DHT22;24910;53.248;-6.134;2022-08-16T01:40:59;18.50;84.30
38684;DHT22;24910;53.248;-6.134;2022-08-16T01:43:33;18.50;84.40
38684;DHT22;24910;53.248;-6.134;2022-08-16T01:46:04;18.50;84.40
38684;DHT22;24910;53.248;-6.134;2022-08-16T01:48:55;18.50;84.50
38684;DHT22;24910;53.248;-6.134;2022-08-16T01:51:26;18.50;84.40
38684;DHT22;24910;53.248;-6.134;2022-08-16T01:53:57;18.50;84.50
38684;DHT22;24910;53.248;-6.134;2022-08-16T01:56:37;18.50;84.50
38684;DHT22;24910;53.248;-6.134;2022-08-16T01:59:10;18.50;84.60
38684;DHT22;24910;53.248;-6.134;2022-08-16T02:01:44;18.50;84.60
38684;DHT22;24910;53.248;-6.134;2022-08-16T02:04:21;18.50;84.70
38684;DHT22;24910;53.248;-6.134;2022-08-16T02:07:10;18.40;84.90
38684;DHT22;24910;53.248;-6.134;2022-08-16T02:09:44;18.40;85.00
38684;DHT22;24910;53.248;-6.134;2022-08-16T02:12:37;18.40;85.00
38684;DHT22;24910;53.248;-6.134;2022-08-16T02:15:24;18.30;84.90
38684;DHT22;24910;53.248;-6.134;2022-08-16T02:17:57;18.30;85.10
38684;DHT22;24910;53.248;-6.134;2022-08-16T02:20:34;18.20;85.00
38684;DHT22;24910;53.248;-6.134;2022-08-16T02:23:09;18.30;85.20
38684;DHT22;24910;53.248;-6.134;2022-08-16T02:25:38;18.30;85.00
38684;DHT22;24910;53.248;-6.134;2022-08-16T02:28:23;18.30;84.90
38684;DHT22;24910;53.248;-6.134;2022-08-16T02:30:55;18.30;84.70
38684;DHT22;24910;53.248;-6.134;2022-08-16T02:33:25;18.20;84.50
38684;DHT22;24910;53.248;-6.134;2022-08-16T02:36:30;18.10;84.30
38684;DHT22;24910;53.248;-6.134;2022-08-16T02:39:18;18.10;84.00
38684;DHT22;24910;53.248;-6.134;2022-08-16T02:41:51;18.10;83.70
38684;DHT22;24910;53.248;-6.134;2022-08-16T02:44:24;18.20;83.60
38684;DHT22;24910;53.248;-6.134;2022-08-16T02:46:56;18.30;83.50
38684;DHT22;24910;53.248;-6.134;2022-08-16T02:49:28;18.30;83.30
38684;DHT22;24910;53.248;-6.134;2022-08-16T02:52:18;18.30;83.30
38684;DHT22;24910;53.248;-6.134;2022-08-16T02:54:59;18.30;83.30
38684;DHT22;24910;53.248;-6.134;2022-08-16T02:57:30;18.20;83.20
38684;DHT22;24910;53.248;-6.134;2022-08-16T03:00:03;18.30;83.30
38684;DHT22;24910;53.248;-6.134;2022-08-16T03:02:55;18.10;83.00
38684;DHT22;24910;53.248;-6.134;2022-08-16T03:05:26;18.10;83.00
38684;DHT22;24910;53.248;-6.134;2022-08-16T03:07:59;18.10;82.90
38684;DHT22;24910;53.248;-6.134;2022-08-16T03:10:34;18.20;82.60
38684;DHT22;24910;53.248;-6.134;2022-08-16T03:13:06;18.20;82.40
38684;DHT22;24910;53.248;-6.134;2022-08-16T03:15:42;18.10;82.50
38684;DHT22;24910;53.248;-6.134;2022-08-16T03:18:17;18.10;82.50
38684;DHT22;24910;53.248;-6.134;2022-08-16T03:21:06;18.10;82.50
38684;DHT22;24910;53.248;-6.134;2022-08-16T03:23:41;18.10;82.60
38684;DHT22;24910;53.248;-6.134;2022-08-16T03:26:11;18.00;82.60
38684;DHT22;24910;53.248;-6.134;2022-08-16T03:28:45;18.10;82.70
38684;DHT22;24910;53.248;-6.134;2022-08-16T03:31:17;18.00;82.70
38684;DHT22;24910;53.248;-6.134;2022-08-16T03:33:47;18.00;82.80
38684;DHT22;24910;53.248;-6.134;2022-08-16T03:36:19;18.10;82.90
38684;DHT22;24910;53.248;-6.134;2022-08-16T03:39:03;18.10;82.90
38684;DHT22;24910;53.248;-6.134;2022-08-16T03:41:42;18.10;82.90
38684;DHT22;24910;53.248;-6.134;2022-08-16T03:44:20;18.10;82.70
38684;DHT22;24910;53.248;-6.134;2022-08-16T03:47:11;18.00;82.60
38684;DHT22;24910;53.248;-6.134;2022-08-16T03:49:47;17.90;82.50
38684;DHT22;24910;53.248;-6.134;2022-08-16T03:52:21;17.90;82.50
38684;DHT22;24910;53.248;-6.134;2022-08-16T03:54:58;17.90;82.60
38684;DHT22;24910;53.248;-6.134;2022-08-16T03:57:29;17.90;82.60
38684;DHT22;24910;53.248;-6.134;2022-08-16T04:00:11;17.80;82.50
38684;DHT22;24910;53.248;-6.134;2022-08-16T04:03:05;17.80;82.30
38684;DHT22;24910;53.248;-6.134;2022-08-16T04:05:41;17.80;82.30
38684;DHT22;24910;53.248;-6.134;2022-08-16T04:08:14;17.80;82.30
38684;DHT22;24910;53.248;-6.134;2022-08-16T04:10:58;17.80;82.30
38684;DHT22;24910;53.248;-6.134;2022-08-16T04:13:28;17.80;82.30
38684;DHT22;24910;53.248;-6.134;2022-08-16T04:16:19;17.80;82.10
38684;DHT22;24910;53.248;-6.134;2022-08-16T04:19:04;17.80;81.90
38684;DHT22;24910;53.248;-6.134;2022-08-16T04:21:35;17.80;81.70
38684;DHT22;24910;53.248;-6.134;2022-08-16T04:24:18;17.70;81.60
38684;DHT22;24910;53.248;-6.134;2022-08-16T04:26:47;17.70;81.60
38684;DHT22;24910;53.248;-6.134;2022-08-16T04:29:17;17.70;81.70
38684;DHT22;24910;53.248;-6.134;2022-08-16T04:31:54;17.70;81.60
38684;DHT22;24910;53.248;-6.134;2022-08-16T04:34:34;17.80;81.60
38684;DHT22;24910;53.248;-6.134;2022-08-16T04:37:05;17.70;81.50
38684;DHT22;24910;53.248;-6.134;2022-08-16T04:39:39;17.70;81.40
38684;DHT22;24910;53.248;-6.134;2022-08-16T04:42:16;17.70;81.40
38684;DHT22;24910;53.248;-6.134;2022-08-16T04:44:54;17.70;81.40
38684;DHT22;24910;53.248;-6.134;2022-08-16T04:47:28;17.70;81.40
38684;DHT22;24910;53.248;-6.134;2022-08-16T04:50:11;17.70;81.40
38684;DHT22;24910;53.248;-6.134;2022-08-16T04:53:07;17.70;81.30
38684;DHT22;24910;53.248;-6.134;2022-08-16T04:55:41;17.70;81.20
38684;DHT22;24910;53.248;-6.134;2022-08-16T04:58:12;17.70;81.10
38684;DHT22;24910;53.248;-6.134;2022-08-16T05:01:02;17.70;81.10
38684;DHT22;24910;53.248;-6.134;2022-08-16T05:03:35;17.70;81.00
38684;DHT22;24910;53.248;-6.134;2022-08-16T05:06:26;17.70;81.00
38684;DHT22;24910;53.248;-6.134;2022-08-16T05:09:18;17.60;81.00
38684;DHT22;24910;53.248;-6.134;2022-08-16T05:11:53;17.60;81.10
38684;DHT22;24910;53.248;-6.134;2022-08-16T05:14:25;17.60;81.10
38684;DHT22;24910;53.248;-6.134;2022-08-16T05:17:19;17.50;81.00
38684;DHT22;24910;53.248;-6.134;2022-08-16T05:19:53;17.50;80.90
38684;DHT22;24910;53.248;-6.134;2022-08-16T05:22:30;17.50;80.90
38684;DHT22;24910;53.248;-6.134;2022-08-16T05:25:02;17.50;80.90
38684;DHT22;24910;53.248;-6.134;2022-08-16T05:27:38;17.50;81.00
38684;DHT22;24910;53.248;-6.134;2022-08-16T05:30:13;17.50;80.90
38684;DHT22;24910;53.248;-6.134;2022-08-16T05:33:06;17.40;80.80
38684;DHT22;24910;53.248;-6.134;2022-08-16T05:35:46;17.40;80.80
38684;DHT22;24910;53.248;-6.134;2022-08-16T05:38:37;17.50;80.70
38684;DHT22;24910;53.248;-6.134;2022-08-16T05:41:13;17.50;80.60
38684;DHT22;24910;53.248;-6.134;2022-08-16T05:43:45;17.50;80.50
38684;DHT22;24910;53.248;-6.134;2022-08-16T05:46:25;17.40;80.30
38684;DHT22;24910;53.248;-6.134;2022-08-16T05:49:00;17.50;80.30
38684;DHT22;24910;53.248;-6.134;2022-08-16T05:51:37;17.40;80.30
38684;DHT22;24910;53.248;-6.134;2022-08-16T05:54:14;17.50;80.30
38684;DHT22;24910;53.248;-6.134;2022-08-16T05:56:53;17.50;80.30
38684;DHT22;24910;53.248;-6.134;2022-08-16T05:59:24;17.50;80.20
38684;DHT22;24910;53.248;-6.134;2022-08-16T06:01:54;17.50;79.90
38684;DHT22;24910;53.248;-6.134;2022-08-16T06:04:31;17.60;80.00
38684;DHT22;24910;53.248;-6.134;2022-08-16T06:07:07;17.50;79.80
38684;DHT22;24910;53.248;-6.134;2022-08-16T06:10:05;17.50;79.80
38684;DHT22;24910;53.248;-6.134;2022-08-16T06:12:37;17.60;79.80
38684;DHT22;24910;53.248;-6.134;2022-08-16T06:15:09;17.60;79.60
38684;DHT22;24910;53.248;-6.134;2022-08-16T06:17:43;17.60;79.60
38684;DHT22;24910;53.248;-6.134;2022-08-16T06:20:21;17.60;79.60
38684;DHT22;24910;53.248;-6.134;2022-08-16T06:23:06;17.60;79.40
38684;DHT22;24910;53.248;-6.134;2022-08-16T06:26:07;17.60;79.50
38684;DHT22;24910;53.248;-6.134;2022-08-16T06:28:40;17.60;79.50
38684;DHT22;24910;53.248;-6.134;2022-08-16T06:31:23;17.60;79.30
38684;DHT22;24910;53.248;-6.134;2022-08-16T06:33:54;17.60;79.40
38684;DHT22;24910;53.248;-6.134;2022-08-16T06:36:26;17.60;79.40
38684;DHT22;24910;53.248;-6.134;2022-08-16T06:39:13;17.60;79.30
38684;DHT22;24910;53.248;-6.134;2022-08-16T06:41:53;17.50;79.00
38684;DHT22;24910;53.248;-6.134;2022-08-16T06:44:41;17.60;79.00
38684;DHT22;24910;53.248;-6.134;2022-08-16T06:47:27;17.60;78.90
38684;DHT22;24910;53.248;-6.134;2022-08-16T06:50:16;17.60;78.80
38684;DHT22;24910;53.248;-6.134;2022-08-16T06:52:49;17.60;78.70
38684;DHT22;24910;53.248;-6.134;2022-08-16T06:55:27;17.60;78.50
38684;DHT22;24910;53.248;-6.134;2022-08-16T06:58:03;17.60;78.30
38684;DHT22;24910;53.248;-6.134;2022-08-16T07:00:56;17.60;78.20
38684;DHT22;24910;53.248;-6.134;2022-08-16T07:03:29;17.60;78.30
38684;DHT22;24910;53.248;-6.134;2022-08-16T07:06:18;17.50;78.30
38684;DHT22;24910;53.248;-6.134;2022-08-16T07:08:55;17.50;78.30
38684;DHT22;24910;53.248;-6.134;2022-08-16T07:11:27;17.50;78.20
38684;DHT22;24910;53.248;-6.134;2022-08-16T07:14:26;17.60;78.20
38684;DHT22;24910;53.248;-6.134;2022-08-16T07:16:59;17.50;78.00
38684;DHT22;24910;53.248;-6.134;2022-08-16T07:19:29;17.50;78.00
38684;DHT22;24910;53.248;-6.134;2022-08-16T07:22:24;17.60;78.10
38684;DHT22;24910;53.248;-6.134;2022-08-16T07:25:14;17.60;78.00
38684;DHT22;24910;53.248;-6.134;2022-08-16T07:27:45;17.70;77.80
38684;DHT22;24910;53.248;-6.134;2022-08-16T07:30:22;17.80;77.80
38684;DHT22;24910;53.248;-6.134;2022-08-16T07:33:18;17.80;77.50
38684;DHT22;24910;53.248;-6.134;2022-08-16T07:36:09;17.90;77.30
38684;DHT22;24910;53.248;-6.134;2022-08-16T07:38:44;17.90;76.90
38684;DHT22;24910;53.248;-6.134;2022-08-16T07:41:17;17.90;76.70
38684;DHT22;24910;53.248;-6.134;2022-08-16T07:43:51;17.90;76.60
38684;DHT22;24910;53.248;-6.134;2022-08-16T07:46:24;18.00;76.50
38684;DHT22;24910;53.248;-6.134;2022-08-16T07:49:16;18.00;76.30
38684;DHT22;24910;53.248;-6.134;2022-08-16T07:51:46;18.00;76.20
38684;DHT22;24910;53.248;-6.134;2022-08-16T07:54:21;18.10;76.00
38684;DHT22;24910;53.248;-6.134;2022-08-16T07:57:01;18.10;75.90
38684;DHT22;24910;53.248;-6.134;2022-08-16T07:59:31;18.00;75.60
38684;DHT22;24910;53.248;-6.134;2022-08-16T08:02:15;18.00;75.60
38684;DHT22;24910;53.248;-6.134;2022-08-16T08:04:50;18.00;75.60
38684;DHT22;24910;53.248;-6.134;2022-08-16T08:07:19;18.20;75.70
38684;DHT22;24910;53.248;-6.134;2022-08-16T08:09:55;18.20;75.30
38684;DHT22;24910;53.248;-6.134;2022-08-16T08:12:25;18.30;75.00
38684;DHT22;24910;53.248;-6.134;2022-08-16T08:15:06;18.20;74.50
38684;DHT22;24910;53.248;-6.134;2022-08-16T08:17:40;18.20;74.40
38684;DHT22;24910;53.248;-6.134;2022-08-16T08:20:23;18.10;74.00
38684;DHT22;24910;53.248;-6.134;2022-08-16T08:22:58;18.10;73.90
38684;DHT22;24910;53.248;-6.134;2022-08-16T08:25:40;18.00;73.70
38684;DHT22;24910;53.248;-6.134;2022-08-16T08:28:26;18.00;73.50
38684;DHT22;24910;53.248;-6.134;2022-08-16T08:31:02;17.90;73.40
38684;DHT22;24910;53.248;-6.134;2022-08-16T08:33:38;17.90;73.40
38684;DHT22;24910;53.248;-6.134;2022-08-16T08:36:21;18.00;73.40
38684;DHT22;24910;53.248;-6.134;2022-08-16T08:39:03;18.00;73.30
38684;DHT22;24910;53.248;-6.134;2022-08-16T08:41:40;18.00;73.00
38684;DHT22;24910;53.248;-6.134;2022-08-16T08:44:14;18.00;72.80
38684;DHT22;24910;53.248;-6.134;2022-08-16T08:46:59;18.10;72.90
38684;DHT22;24910;53.248;-6.134;2022-08-16T08:49:33;18.20;72.90
38684;DHT22;24910;53.248;-6.134;2022-08-16T08:52:17;18.40;72.70
38684;DHT22;24910;53.248;-6.134;2022-08-16T08:55:08;18.40;72.40
38684;DHT22;24910;53.248;-6.134;2022-08-16T08:57:45;18.60;72.10
38684;DHT22;24910;53.248;-6.134;2022-08-16T09:00:29;18.60;71.60
38684;DHT22;24910;53.248;-6.134;2022-08-16T09:03:16;18.70;71.60
38684;DHT22;24910;53.248;-6.134;2022-08-16T09:05:49;18.70;71.10
38684;DHT22;24910;53.248;-6.134;2022-08-16T09:08:20;18.70;70.90
38684;DHT22;24910;53.248;-6.134;2022-08-16T09:11:01;18.60;71.00
38684;DHT22;24910;53.248;-6.134;2022-08-16T09:13:35;18.60;70.90
38684;DHT22;24910;53.248;-6.134;2022-08-16T09:16:14;18.70;70.80
38684;DHT22;24910;53.248;-6.134;2022-08-16T09:19:05;18.70;70.60
38684;DHT22;24910;53.248;-6.134;2022-08-16T09:21:40;18.80;70.40
38684;DHT22;24910;53.248;-6.134;2022-08-16T09:24:11;18.80;69.90
38684;DHT22;24910;53.248;-6.134;2022-08-16T09:27:01;18.90;69.80
38684;DHT22;24910;53.248;-6.134;2022-08-16T09:29:33;18.90;69.70
38684;DHT22;24910;53.248;-6.134;2022-08-16T09:32:15;19.10;69.40
38684;DHT22;24910;53.248;-6.134;2022-08-16T09:34:57;19.20;69.10
38684;DHT22;24910;53.248;-6.134;2022-08-16T09:37:28;19.30;69.10
38684;DHT22;24910;53.248;-6.134;2022-08-16T09:40:05;19.30;68.90
38684;DHT22;24910;53.248;-6.134;2022-08-16T09:42:55;19.40;68.60
38684;DHT22;24910;53.248;-6.134;2022-08-16T09:45:26;19.50;68.50
38684;DHT22;24910;53.248;-6.134;2022-08-16T09:47:57;19.60;68.40
38684;DHT22;24910;53.248;-6.134;2022-08-16T09:50:27;19.80;68.30
38684;DHT22;24910;53.248;-6.134;2022-08-16T09:53:10;19.80;67.90
38684;DHT22;24910;53.248;-6.134;2022-08-16T09:55:45;19.70;67.50
38684;DHT22;24910;53.248;-6.134;2022-08-16T09:58:17;19.60;67.50
38684;DHT22;24910;53.248;-6.134;2022-08-16T10:01:06;19.50;67.50
38684;DHT22;24910;53.248;-6.134;2022-08-16T10:03:38;19.40;67.80
38684;DHT22;24910;53.248;-6.134;2022-08-16T10:06:28;19.50;67.90
38684;DHT22;24910;53.248;-6.134;2022-08-16T10:09:03;19.60;67.60
38684;DHT22;24910;53.248;-6.134;2022-08-16T10:11:37;19.60;67.60
38684;DHT22;24910;53.248;-6.134;2022-08-16T10:14:44;19.70;67.60
38684;DHT22;24910;53.248;-6.134;2022-08-16T10:17:13;19.90;67.50
38684;DHT22;24910;53.248;-6.134;2022-08-16T10:19:42;19.90;67.20
38684;DHT22;24910;53.248;-6.134;2022-08-16T10:22:17;20.10;67.20
38684;DHT22;24910;53.248;-6.134;2022-08-16T10:24:51;20.40;66.90
38684;DHT22;24910;53.248;-6.134;2022-08-16T10:27:26;20.50;66.30
38684;DHT22;24910;53.248;-6.134;2022-08-16T10:30:13;20.70;65.50
38684;DHT22;24910;53.248;-6.134;2022-08-16T10:32:55;20.70;65.30
38684;DHT22;24910;53.248;-6.134;2022-08-16T10:35:26;20.80;65.10
38684;DHT22;24910;53.248;-6.134;2022-08-16T10:37:59;20.80;64.90
38684;DHT22;24910;53.248;-6.134;2022-08-16T10:40:34;20.80;64.80
38684;DHT22;24910;53.248;-6.134;2022-08-16T10:43:04;20.60;63.90
38684;DHT22;24910;53.248;-6.134;2022-08-16T10:45:44;20.30;64.10
38684;DHT22;24910;53.248;-6.134;2022-08-16T10:48:28;20.10;64.40
38684;DHT22;24910;53.248;-6.134;2022-08-16T10:50:58;20.10;64.70
38684;DHT22;24910;53.248;-6.134;2022-08-16T10:53:28;20.10;64.90
38684;DHT22;24910;53.248;-6.134;2022-08-16T10:56:04;20.00;64.40
38684;DHT22;24910;53.248;-6.134;2022-08-16T10:58:54;19.90;64.30
38684;DHT22;24910;53.248;-6.134;2022-08-16T11:01:45;19.80;64.60
38684;DHT22;24910;53.248;-6.134;2022-08-16T11:04:34;19.80;64.70
38684;DHT22;24910;53.248;-6.134;2022-08-16T11:07:23;19.90;64.80
38684;DHT22;24910;53.248;-6.134;2022-08-16T11:10:14;19.80;64.70
38684;DHT22;24910;53.248;-6.134;2022-08-16T11:13:05;19.80;64.90
38684;DHT22;24910;53.248;-6.134;2022-08-16T11:15:55;19.80;64.80
38684;DHT22;24910;53.248;-6.134;2022-08-16T11:18:27;19.80;64.30
38684;DHT22;24910;53.248;-6.134;2022-08-16T11:21:17;19.70;64.40
38684;DHT22;24910;53.248;-6.134;2022-08-16T11:23:56;19.80;64.30
38684;DHT22;24910;53.248;-6.134;2022-08-16T11:26:26;19.80;64.20
38684;DHT22;24910;53.248;-6.134;2022-08-16T11:28:58;19.80;64.20
38684;DHT22;24910;53.248;-6.134;2022-08-16T11:31:43;19.80;64.10
38684;DHT22;24910;53.248;-6.134;2022-08-16T11:34:21;19.80;64.00
38684;DHT22;24910;53.248;-6.134;2022-08-16T11:36:51;19.70;63.80
38684;DHT22;24910;53.248;-6.134;2022-08-16T11:39:29;19.50;63.80
38684;DHT22;24910;53.248;-6.134;2022-08-16T11:42:01;19.50;64.10
38684;DHT22;24910;53.248;-6.134;2022-08-16T11:44:51;19.40;64.10
38684;DHT22;24910;53.248;-6.134;2022-08-16T11:47:23;19.30;64.40
38684;DHT22;24910;53.248;-6.134;2022-08-16T11:49:52;19.30;64.60
38684;DHT22;24910;53.248;-6.134;2022-08-16T11:52:22;19.30;64.80
38684;DHT22;24910;53.248;-6.134;2022-08-16T11:54:54;19.30;64.70
38684;DHT22;24910;53.248;-6.134;2022-08-16T11:57:27;19.30;64.60
38684;DHT22;24910;53.248;-6.134;2022-08-16T12:00:00;19.30;64.60
38684;DHT22;24910;53.248;-6.134;2022-08-16T12:02:38;19.30;64.60
38684;DHT22;24910;53.248;-6.134;2022-08-16T12:05:14;19.20;64.40
38684;DHT22;24910;53.248;-6.134;2022-08-16T12:07:43;19.20;64.40
38684;DHT22;24910;53.248;-6.134;2022-08-16T12:10:16;19.20;64.50
38684;DHT22;24910;53.248;-6.134;2022-08-16T12:12:45;19.20;64.60
38684;DHT22;24910;53.248;-6.134;2022-08-16T12:15:20;19.20;64.70
38684;DHT22;24910;53.248;-6.134;2022-08-16T12:17:49;19.20;64.70
38684;DHT22;24910;53.248;-6.134;2022-08-16T12:20:21;19.30;64.60
38684;DHT22;24910;53.248;-6.134;2022-08-16T12:22:54;19.30;64.40
38684;DHT22;24910;53.248;-6.134;2022-08-16T12:25:26;19.20;64.30
38684;DHT22;24910;53.248;-6.134;2022-08-16T12:27:57;19.20;64.60
38684;DHT22;24910;53.248;-6.134;2022-08-16T12:30:34;19.20;64.90
38684;DHT22;24910;53.248;-6.134;2022-08-16T12:33:07;19.20;65.00
38684;DHT22;24910;53.248;-6.134;2022-08-16T12:35:38;19.20;64.90
38684;DHT22;24910;53.248;-6.134;2022-08-16T12:38:09;19.30;64.90
38684;DHT22;24910;53.248;-6.134;2022-08-16T12:40:58;19.30;64.90
38684;DHT22;24910;53.248;-6.134;2022-08-16T12:43:28;19.40;64.90
38684;DHT22;24910;53.248;-6.134;2022-08-16T12:45:59;19.30;64.70
38684;DHT22;24910;53.248;-6.134;2022-08-16T12:48:31;19.30;64.60
38684;DHT22;24910;53.248;-6.134;2022-08-16T12:51:21;19.30;64.70
38684;DHT22;24910;53.248;-6.134;2022-08-16T12:53:53;19.40;64.80
38684;DHT22;24910;53.248;-6.134;2022-08-16T12:56:27;19.30;64.80
38684;DHT22;24910;53.248;-6.134;2022-08-16T12:59:00;19.30;65.00
38684;DHT22;24910;53.248;-6.134;2022-08-16T13:01:32;19.30;64.80
38684;DHT22;24910;53.248;-6.134;2022-08-16T13:04:03;19.30;64.60
38684;DHT22;24910;53.248;-6.134;2022-08-16T13:06:48;19.30;64.60
38684;DHT22;24910;53.248;-6.134;2022-08-16T13:09:19;19.40;64.20
38684;DHT22;24910;53.248;-6.134;2022-08-16T13:11:57;19.40;63.70
38684;DHT22;24910;53.248;-6.134;2022-08-16T13:14:37;19.30;63.20
38684;DHT22;24910;53.248;-6.134;2022-08-16T13:17:15;19.30;63.00
38684;DHT22;24910;53.248;-6.134;2022-08-16T13:19:51;19.40;62.90
38684;DHT22;24910;53.248;-6.134;2022-08-16T13:22:40;19.50;62.70
38684;DHT22;24910;53.248;-6.134;2022-08-16T13:25:12;19.60;62.40
38684;DHT22;24910;53.248;-6.134;2022-08-16T13:27:50;19.60;62.30
38684;DHT22;24910;53.248;-6.134;2022-08-16T13:30:32;19.70;62.10
38684;DHT22;24910;53.248;-6.134;2022-08-16T13:33:12;19.80;61.80
38684;DHT22;24910;53.248;-6.134;2022-08-16T13:35:52;19.80;61.50
38684;DHT22;24910;53.248;-6.134;2022-08-16T13:38:27;19.70;61.30
38684;DHT22;24910;53.248;-6.134;2022-08-16T13:41:05;19.70;61.50
38684;DHT22;24910;53.248;-6.134;2022-08-16T13:43:36;19.60;61.70
38684;DHT22;24910;53.248;-6.134;2022-08-16T13:46:06;19.70;61.90
38684;DHT22;24910;53.248;-6.134;2022-08-16T13:48:37;19.70;62.00
38684;DHT22;24910;53.248;-6.134;2022-08-16T13:51:13;19.70;62.00
38684;DHT22;24910;53.248;-6.134;2022-08-16T13:53:45;19.70;61.90
38684;DHT22;24910;53.248;-6.134;2022-08-16T13:56:26;19.70;62.20
38684;DHT22;24910;53.248;-6.134;2022-08-16T13:59:08;19.60;62.00
38684;DHT22;24910;53.248;-6.134;2022-08-16T14:01:48;19.60;62.10
38684;DHT22;24910;53.248;-6.134;2022-08-16T14:04:25;19.60;62.30
38684;DHT22;24910;53.248;-6.134;2022-08-16T14:06:55;19.60;62.50
38684;DHT22;24910;53.248;-6.134;2022-08-16T14:09:26;19.70;62.30
38684;DHT22;24910;53.248;-6.134;2022-08-16T14:11:56;19.60;62.00
38684;DHT22;24910;53.248;-6.134;2022-08-16T14:14:27;19.50;61.60
38684;DHT22;24910;53.248;-6.134;2022-08-16T14:16:58;19.50;61.30
38684;DHT22;24910;53.248;-6.134;2022-08-16T14:19:30;19.50;60.90
38684;DHT22;24910;53.248;-6.134;2022-08-16T14:22:00;19.40;60.80
38684;DHT22;24910;53.248;-6.134;2022-08-16T14:24:42;19.40;60.90
38684;DHT22;24910;53.248;-6.134;2022-08-16T14:27:15;19.40;60.80
38684;DHT22;24910;53.248;-6.134;2022-08-16T14:29:45;19.40;60.70
38684;DHT22;24910;53.248;-6.134;2022-08-16T14:32:17;19.40;60.60
38684;DHT22;24910;53.248;-6.134;2022-08-16T14:35:05;19.40;60.30
38684;DHT22;24910;53.248;-6.134;2022-08-16T14:37:35;19.40;60.30
38684;DHT22;24910;53.248;-6.134;2022-08-16T14:40:07;19.50;60.50
38684;DHT22;24910;53.248;-6.134;2022-08-16T14:42:39;19.50;60.30
38684;DHT22;24910;53.248;-6.134;2022-08-16T14:45:12;19.50;60.60
38684;DHT22;24910;53.248;-6.134;2022-08-16T14:47:43;19.50;60.90
38684;DHT22;24910;53.248;-6.134;2022-08-16T14:50:19;19.40;61.10
38684;DHT22;24910;53.248;-6.134;2022-08-16T14:52:55;19.40;61.10
38684;DHT22;24910;53.248;-6.134;2022-08-16T14:55:25;19.40;60.80
38684;DHT22;24910;53.248;-6.134;2022-08-16T14:57:55;19.30;60.50
38684;DHT22;24910;53.248;-6.134;2022-08-16T15:00:26;19.30;60.70
38684;DHT22;24910;53.248;-6.134;2022-08-16T15:03:04;19.20;60.80
38684;DHT22;24910;53.248;-6.134;2022-08-16T15:05:38;19.20;61.00
38684;DHT22;24910;53.248;-6.134;2022-08-16T15:08:09;19.20;60.80
38684;DHT22;24910;53.248;-6.134;2022-08-16T15:10:38;19.20;60.90
38684;DHT22;24910;53.248;-6.134;2022-08-16T15:13:12;19.30;61.10
38684;DHT22;24910;53.248;-6.134;2022-08-16T15:15:43;19.30;61.10
38684;DHT22;24910;53.248;-6.134;2022-08-16T15:18:27;19.30;61.10
38684;DHT22;24910;53.248;-6.134;2022-08-16T15:21:00;19.30;61.10
38684;DHT22;24910;53.248;-6.134;2022-08-16T15:23:31;19.20;61.20
38684;DHT22;24910;53.248;-6.134;2022-08-16T15:26:01;19.30;61.30
38684;DHT22;24910;53.248;-6.134;2022-08-16T15:28:35;19.30;61.30
38684;DHT22;24910;53.248;-6.134;2022-08-16T15:31:06;19.30;61.10
38684;DHT22;24910;53.248;-6.134;2022-08-16T15:33:38;19.30;61.00
38684;DHT22;24910;53.248;-6.134;2022-08-16T15:36:15;19.30;61.00
38684;DHT22;24910;53.248;-6.134;2022-08-16T15:38:49;19.30;61.10
38684;DHT22;24910;53.248;-6.134;2022-08-16T15:41:55;19.40;61.40
38684;DHT22;24910;53.248;-6.134;2022-08-16T15:44:28;19.40;61.50
38684;DHT22;24910;53.248;-6.134;2022-08-16T15:47:19;19.40;61.50
38684;DHT22;24910;53.248;-6.134;2022-08-16T15:49:53;19.40;61.50
38684;DHT22;24910;53.248;-6.134;2022-08-16T15:52:26;19.40;61.40
38684;DHT22;24910;53.248;-6.134;2022-08-16T15:54:58;19.30;61.10
38684;DHT22;24910;53.248;-6.134;2022-08-16T15:57:48;19.30;61.10
38684;DHT22;24910;53.248;-6.134;2022-08-16T16:00:18;19.30;61.10
38684;DHT22;24910;53.248;-6.134;2022-08-16T16:02:50;19.30;60.90
38684;DHT22;24910;53.248;-6.134;2022-08-16T16:05:27;19.30;60.90
38684;DHT22;24910;53.248;-6.134;2022-08-16T16:08:00;19.20;60.90
38684;DHT22;24910;53.248;-6.134;2022-08-16T16:10:40;19.30;60.90
38684;DHT22;24910;53.248;-6.134;2022-08-16T16:13:10;19.30;60.90
38684;DHT22;24910;53.248;-6.134;2022-08-16T16:15:42;19.30;60.70
38684;DHT22;24910;53.248;-6.134;2022-08-16T16:18:12;19.30;60.50